createdAt,value
2023-02-19T00:04:45.030Z,12.02
2023-02-19T00:09:50.352Z,12.43
2023-02-19T00:14:57.199Z,14.45
2023-02-19T00:20:05.152Z,12.80
2023-02-19T00:25:10.824Z,14.82
2023-02-19T00:30:16.587Z,13.70
2023-02-19T00:35:24.541Z,11.17
2023-02-19T00:40:30.096Z,9.98
2023-02-19T00:45:35.968Z,11.17
2023-02-19T00:50:43.825Z,10.82
2023-02-19T00:55:49.101Z,8.38
2023-02-19T01:00:54.414Z,10.27
2023-02-19T01:06:02.863Z,9.90
2023-02-19T01:11:10.568Z,9.83
2023-02-19T01:16:18.754Z,9.10
2023-02-19T01:21:28.273Z,8.73
2023-02-19T01:26:35.779Z,10.83
2023-02-19T01:31:42.735Z,9.52
2023-02-19T01:36:50.700Z,9.30
2023-02-19T01:41:56.017Z,7.22
2023-02-19T01:47:01.628Z,9.73
2023-02-19T01:52:15.805Z,10.23
2023-02-19T01:57:24.092Z,12.65
2023-02-19T02:02:29.328Z,12.83
2023-02-19T02:07:49.628Z,12.65
2023-02-19T02:13:01.663Z,13.60
2023-02-19T02:18:17.002Z,13.73
2023-02-19T02:23:37.714Z,14.63
2023-02-19T02:29:19.293Z,12.07
2023-02-19T02:34:32.485Z,15.05
2023-02-19T02:39:39.463Z,14.43
2023-02-19T02:45:07.331Z,15.60
2023-02-19T02:50:25.638Z,16.40
2023-02-19T02:55:36.567Z,15.83
2023-02-19T03:00:55.977Z,15.13
2023-02-19T03:06:11.097Z,15.73
2023-02-19T03:11:29.276Z,18.67
2023-02-19T03:16:52.416Z,14.85
2023-02-19T03:22:09.921Z,15.30
2023-02-19T03:27:17.183Z,16.38
2023-02-19T03:32:30.532Z,13.95
2023-02-19T03:37:43.970Z,15.27
2023-02-19T03:42:57.463Z,16.85
2023-02-19T03:48:20.490Z,14.60
2023-02-19T03:53:35.984Z,17.30
2023-02-19T03:58:52.271Z,16.40
2023-02-19T04:04:02.437Z,19.60
2023-02-19T04:09:14.434Z,18.88
2023-02-19T04:14:27.670Z,15.90
2023-02-19T04:19:37.951Z,18.85
2023-02-19T04:24:50.408Z,17.05
2023-02-19T04:29:55.705Z,16.10
2023-02-19T04:35:00.893Z,18.17
2023-02-19T04:40:09.645Z,18.87
2023-02-19T04:45:14.952Z,21.15
2023-02-19T04:50:20.270Z,17.77
2023-02-19T04:55:28.478Z,18.33
2023-02-19T05:00:34.214Z,18.88
2023-02-19T05:05:39.494Z,16.47
2023-02-19T05:10:47.830Z,14.07
2023-02-19T05:16:00.676Z,21.25
2023-02-19T05:21:06.139Z,14.97
2023-02-19T05:26:17.893Z,16.83
2023-02-19T05:31:23.953Z,13.63
2023-02-19T05:36:29.465Z,16.58
2023-02-19T05:41:37.306Z,16.17
2023-02-19T05:46:42.694Z,12.70
2023-02-19T05:51:47.973Z,19.70
2023-02-19T05:56:58.788Z,11.57
2023-02-19T06:02:04.440Z,10.70
2023-02-19T06:07:09.670Z,11.75
2023-02-19T06:12:17.815Z,12.67
2023-02-19T06:17:23.264Z,17.48
2023-02-19T06:22:28.898Z,13.77
2023-02-19T06:27:36.758Z,13.98
2023-02-19T06:32:42.044Z,14.25
2023-02-19T06:37:49.611Z,14.37
2023-02-19T06:42:57.483Z,11.10
2023-02-19T06:48:02.730Z,18.20
2023-02-19T06:53:09.091Z,12.15
2023-02-19T06:58:16.930Z,14.27
2023-02-19T07:03:22.515Z,11.90
2023-02-19T07:08:29.650Z,13.63
2023-02-19T07:13:37.852Z,10.50
2023-02-19T07:18:43.610Z,11.85
2023-02-19T07:23:49.181Z,12.75
2023-02-19T07:28:57.303Z,13.83
2023-02-19T07:34:02.770Z,15.55
2023-02-19T07:39:10.132Z,11.73
2023-02-19T07:44:18.149Z,12.77
2023-02-19T07:49:23.395Z,14.52
2023-02-19T07:54:28.683Z,8.77
2023-02-19T07:59:37.425Z,8.55
2023-02-19T08:04:43.023Z,17.77
2023-02-19T08:10:08.291Z,10.35
2023-02-19T08:15:16.187Z,11.25
2023-02-19T08:20:21.721Z,9.30
2023-02-19T08:25:27.029Z,12.05
2023-02-19T08:30:35.723Z,11.80
2023-02-19T08:35:41.883Z,10.20
2023-02-19T08:40:47.161Z,15.98
2023-02-19T08:45:57.436Z,14.13
2023-02-19T08:51:11.767Z,14.82
2023-02-19T08:56:19.324Z,15.60
2023-02-19T09:01:27.321Z,12.13
2023-02-19T09:06:40.045Z,12.45
2023-02-19T09:11:47.873Z,12.33
2023-02-19T09:16:56.967Z,9.65
2023-02-19T09:22:02.783Z,12.20
2023-02-19T09:27:08.062Z,9.20
2023-02-19T09:32:18.060Z,12.65
2023-02-19T09:37:28.724Z,11.77
2023-02-19T09:42:35.502Z,12.75
2023-02-19T09:47:43.642Z,11.33
2023-02-19T09:52:54.777Z,9.52
2023-02-19T09:58:04.801Z,10.35
2023-02-19T10:03:17.600Z,11.50
2023-02-19T10:08:24.024Z,12.07
2023-02-19T10:13:36.252Z,9.50
2023-02-19T10:18:46.264Z,9.03
2023-02-19T10:23:55.020Z,7.03
2023-02-19T10:29:06.387Z,8.10
2023-02-19T10:34:24.186Z,7.45
2023-02-19T10:39:46.709Z,6.40
2023-02-19T10:45:04.114Z,4.13
2023-02-19T10:50:26.201Z,6.80
2023-02-19T10:55:37.981Z,6.27
2023-02-19T11:00:45.867Z,6.47
2023-02-19T11:06:03.751Z,5.95
2023-02-19T11:11:13.390Z,7.00
2023-02-19T11:16:18.996Z,7.65
2023-02-19T11:21:33.606Z,5.57
2023-02-19T11:26:39.378Z,7.43
2023-02-19T11:31:44.877Z,4.53
2023-02-19T11:37:11.589Z,4.10
2023-02-19T11:42:40.282Z,3.63
2023-02-19T11:48:03.688Z,5.17
2023-02-19T11:53:24.107Z,5.53
2023-02-19T11:58:54.676Z,7.50
2023-02-19T12:04:23.123Z,8.90
2023-02-19T12:09:54.919Z,6.65
2023-02-19T12:15:13.726Z,6.63
2023-02-19T12:20:31.902Z,5.93
2023-02-19T12:25:55.060Z,7.35
2023-02-19T12:31:35.887Z,7.50
2023-02-19T12:36:50.616Z,7.82
2023-02-19T12:42:06.500Z,6.03
2023-02-19T12:47:22.000Z,4.50
2023-02-19T12:52:30.509Z,6.13
2023-02-19T12:57:41.092Z,6.87
2023-02-19T13:02:52.055Z,7.70
2023-02-19T13:08:02.081Z,7.63
2023-02-19T13:13:15.223Z,9.23
2023-02-19T13:18:32.312Z,10.10
2023-02-19T13:23:52.178Z,6.30
2023-02-19T13:29:10.423Z,9.48
2023-02-19T13:34:26.888Z,9.45
2023-02-19T13:39:32.292Z,8.17
2023-02-19T13:44:43.394Z,7.28
2023-02-19T13:49:52.360Z,7.20
2023-02-19T13:55:42.385Z,6.22
2023-02-19T14:00:55.108Z,7.00
2023-02-19T14:06:06.141Z,8.50
2023-02-19T14:11:14.382Z,7.97
2023-02-19T14:16:37.926Z,6.70
2023-02-19T14:21:44.105Z,6.40
2023-02-19T14:26:49.491Z,8.50
2023-02-19T14:31:58.423Z,6.00
2023-02-19T14:37:06.917Z,10.48
2023-02-19T14:42:27.151Z,6.40
2023-02-19T14:47:36.126Z,9.50
2023-02-19T14:52:45.802Z,7.88
2023-02-19T14:57:53.435Z,6.33
2023-02-19T15:03:02.813Z,5.00
2023-02-19T15:08:12.594Z,4.60
2023-02-19T15:13:23.575Z,4.47
2023-02-19T15:18:36.622Z,4.37
2023-02-19T15:23:49.657Z,3.92
2023-02-19T15:29:02.864Z,4.80
2023-02-19T15:34:19.387Z,7.37
2023-02-19T15:39:27.646Z,7.80
2023-02-19T15:44:48.361Z,6.43
2023-02-19T15:50:01.061Z,4.95
2023-02-19T15:55:16.659Z,6.95
2023-02-19T16:00:28.840Z,5.47
2023-02-19T16:05:40.044Z,8.50
2023-02-19T16:10:56.113Z,8.55
2023-02-19T16:16:06.136Z,7.70
2023-02-19T16:21:14.238Z,7.78
2023-02-19T16:26:19.974Z,9.33
2023-02-19T16:31:26.491Z,9.70
2023-02-19T16:36:43.730Z,6.45
2023-02-19T16:42:17.177Z,4.37
2023-02-19T16:47:48.260Z,3.13
2023-02-19T16:52:58.503Z,4.70
2023-02-19T16:58:04.565Z,1.98
2023-02-19T17:03:12.052Z,2.38
2023-02-19T17:08:34.252Z,3.03
2023-02-19T17:13:39.685Z,7.97
2023-02-19T17:18:45.188Z,3.10
2023-02-19T17:23:54.018Z,6.47
2023-02-19T17:29:00.108Z,5.63
2023-02-19T17:34:05.898Z,4.13
2023-02-19T17:39:17.899Z,3.03
2023-02-19T17:44:23.237Z,2.77
2023-02-19T17:49:28.654Z,3.67
2023-02-19T17:54:36.552Z,4.60
2023-02-19T17:59:41.897Z,4.57
2023-02-19T18:04:47.364Z,6.50
2023-02-19T18:09:55.590Z,4.73
2023-02-19T18:15:01.043Z,6.25
2023-02-19T18:20:07.434Z,4.85
2023-02-19T18:25:15.639Z,2.20
2023-02-19T18:30:22.969Z,3.58
2023-02-19T18:35:28.735Z,1.90
2023-02-19T18:40:37.737Z,2.25
2023-02-19T18:45:45.545Z,2.22
2023-02-19T18:50:51.690Z,2.37
2023-02-19T18:56:02.021Z,2.42
2023-02-19T19:01:10.732Z,3.90
2023-02-19T19:06:17.051Z,1.40
2023-02-19T19:11:25.676Z,1.60
2023-02-19T19:16:32.029Z,1.77
2023-02-19T19:21:37.634Z,2.20
2023-02-19T19:26:49.859Z,2.53
2023-02-19T19:31:55.971Z,4.47
2023-02-19T19:37:01.899Z,1.63
2023-02-19T19:42:10.144Z,1.73
2023-02-19T19:47:15.793Z,1.70
2023-02-19T19:52:21.355Z,2.63
2023-02-19T19:57:29.534Z,1.92
2023-02-19T20:02:35.011Z,2.08
2023-02-19T20:07:40.698Z,2.97
2023-02-19T20:12:49.708Z,1.08
2023-02-19T20:17:55.049Z,2.20
2023-02-19T20:23:02.803Z,2.17
2023-02-19T20:28:11.570Z,1.63
2023-02-19T20:33:16.955Z,2.17
2023-02-19T20:38:22.810Z,1.23
2023-02-19T20:43:30.898Z,1.17
2023-02-19T20:48:36.439Z,3.47
2023-02-19T20:53:41.908Z,1.20
2023-02-19T20:58:49.924Z,1.43
2023-02-19T21:03:55.352Z,2.95
2023-02-19T21:09:00.664Z,1.70
2023-02-19T21:14:08.562Z,2.53
2023-02-19T21:19:14.121Z,1.50
2023-02-19T21:24:19.849Z,1.73
2023-02-19T21:29:28.445Z,1.27
2023-02-19T21:34:33.749Z,1.70
2023-02-19T21:39:39.448Z,2.35
2023-02-19T21:44:47.708Z,2.15
2023-02-19T21:49:53.034Z,1.13
2023-02-19T21:54:58.378Z,1.40
2023-02-19T22:00:07.484Z,2.90
2023-02-19T22:05:13.005Z,1.67
2023-02-19T22:10:18.910Z,0.98
2023-02-19T22:15:27.029Z,1.67
2023-02-19T22:20:32.364Z,1.20
2023-02-19T22:25:38.009Z,1.47
2023-02-19T22:30:46.093Z,3.45
2023-02-19T22:35:51.340Z,1.17
2023-02-19T22:40:56.635Z,2.00
2023-02-19T22:46:04.710Z,2.42
2023-02-19T22:51:14.173Z,2.57
2023-02-19T22:56:22.507Z,2.33
2023-02-19T23:01:30.544Z,3.38
2023-02-19T23:06:38.028Z,3.87
2023-02-19T23:11:43.511Z,4.18
2023-02-19T23:16:51.427Z,3.77
2023-02-19T23:21:56.991Z,4.20
2023-02-19T23:27:02.380Z,3.55
2023-02-19T23:32:10.333Z,3.70
2023-02-19T23:37:15.682Z,3.80
2023-02-19T23:42:21.441Z,5.23
2023-02-19T23:47:30.727Z,4.18
2023-02-19T23:52:36.153Z,4.15
2023-02-19T23:57:41.400Z,4.03
